Terminal Aerodrome Forecast
Issued by NWS

Home | Current Version | Previous Version | Text Only | Print | Product List | Glossary Off
Versions: 1 2 3 4 5 6 7 8 9 10 11 12 13 14 15 16 17 18 19 20 21

444
FTUS43 KGRB 200932 AAA
TAFMTW
TAF AMD
KMTW 200932Z 2010/2106 10004KT 1/2SM -FZDZ FG OVC002 WS020/23030KT
      TEMPO 2012/2014 1SM -FZRA BR
     FM201700 22006KT 4SM -RA BR OVC005 WS020/24035KT
     FM202000 25006KT 5SM -RA BR OVC007
     FM202300 29007KT P6SM OVC015
     FM210400 30010G16KT P6SM BKN020=

USA.gov is the U.S. government's official web portal to all federal, state and local government web resources and services.